sensor_id;sensor_type;location;lat;lon;timestamp;P1;durP1;ratioP1;P2;durP2;ratioP2
62911;SDS011;49111;51.028;4.218;2023-03-01T06:47:44;10.23;;;6.60;;
62911;SDS011;49111;51.028;4.218;2023-03-01T06:50:12;9.75;;;6.32;;
62911;SDS011;49111;51.028;4.218;2023-03-01T06:52:38;11.40;;;6.35;;
62911;SDS011;49111;51.028;4.218;2023-03-01T06:55:04;11.90;;;6.68;;
62911;SDS011;49111;51.028;4.218;2023-03-01T06:57:31;10.07;;;6.72;;
62911;SDS011;49111;51.028;4.218;2023-03-01T06:59:56;13.18;;;6.57;;
62911;SDS011;49111;51.028;4.218;2023-03-01T07:02:22;11.25;;;6.80;;
62911;SDS011;49111;51.028;4.218;2023-03-01T07:04:49;12.30;;;7.07;;
62911;SDS011;49111;51.028;4.218;2023-03-01T07:07:16;9.85;;;6.50;;
62911;SDS011;49111;51.028;4.218;2023-03-01T07:09:51;12.40;;;7.30;;
62911;SDS011;49111;51.028;4.218;2023-03-01T07:12:30;12.48;;;7.00;;
62911;SDS011;49111;51.028;4.218;2023-03-01T07:18:29;11.80;;;7.45;;
62911;SDS011;49111;51.028;4.218;2023-03-01T07:21:03;13.20;;;7.72;;
62911;SDS011;49111;51.028;4.218;2023-03-01T07:23:35;11.50;;;6.88;;
62911;SDS011;49111;51.028;4.218;2023-03-01T07:29:09;10.20;;;7.43;;
62911;SDS011;49111;51.028;4.218;2023-03-01T07:35:11;12.13;;;7.03;;
62911;SDS011;49111;51.028;4.218;2023-03-01T07:37:47;11.02;;;6.72;;
62911;SDS011;49111;51.028;4.218;2023-03-01T07:40:17;10.75;;;6.18;;
62911;SDS011;49111;51.028;4.218;2023-03-01T07:47:03;11.88;;;7.03;;
62911;SDS011;49111;51.028;4.218;2023-03-01T07:49:29;12.75;;;6.55;;
62911;SDS011;49111;51.028;4.218;2023-03-01T07:54:59;14.00;;;7.18;;
62911;SDS011;49111;51.028;4.218;2023-03-01T08:03:38;13.50;;;7.25;;
62911;SDS011;49111;51.028;4.218;2023-03-01T08:06:06;10.40;;;6.53;;
62911;SDS011;49111;51.028;4.218;2023-03-01T08:08:39;13.13;;;6.70;;
62911;SDS011;49111;51.028;4.218;2023-03-01T08:11:06;10.20;;;7.43;;
62911;SDS011;49111;51.028;4.218;2023-03-01T08:13:33;14.88;;;7.45;;
62911;SDS011;49111;51.028;4.218;2023-03-01T08:16:12;9.63;;;7.45;;
62911;SDS011;49111;51.028;4.218;2023-03-01T08:18:40;13.90;;;8.13;;
62911;SDS011;49111;51.028;4.218;2023-03-01T08:25:15;11.23;;;6.68;;
62911;SDS011;49111;51.028;4.218;2023-03-01T08:27:48;14.35;;;7.63;;
62911;SDS011;49111;51.028;4.218;2023-03-01T08:30:14;13.75;;;8.35;;
62911;SDS011;49111;51.028;4.218;2023-03-01T08:32:45;15.02;;;8.15;;
62911;SDS011;49111;51.028;4.218;2023-03-01T08:35:12;13.27;;;7.63;;
62911;SDS011;49111;51.028;4.218;2023-03-01T08:37:39;13.82;;;7.50;;
62911;SDS011;49111;51.028;4.218;2023-03-01T08:40:05;13.23;;;8.18;;
62911;SDS011;49111;51.028;4.218;2023-03-01T08:42:39;13.18;;;7.20;;
62911;SDS011;49111;51.028;4.218;2023-03-01T08:45:11;11.60;;;6.75;;
62911;SDS011;49111;51.028;4.218;2023-03-01T08:59:59;14.02;;;7.20;;
62911;SDS011;49111;51.028;4.218;2023-03-01T09:11:31;14.73;;;8.27;;
62911;SDS011;49111;51.028;4.218;2023-03-01T09:14:11;11.25;;;7.47;;
62911;SDS011;49111;51.028;4.218;2023-03-01T09:16:49;13.00;;;7.15;;
62911;SDS011;49111;51.028;4.218;2023-03-01T09:25:31;12.30;;;7.00;;
62911;SDS011;49111;51.028;4.218;2023-03-01T09:27:59;12.82;;;7.07;;
62911;SDS011;49111;51.028;4.218;2023-03-01T09:30:27;13.98;;;7.72;;
62911;SDS011;49111;51.028;4.218;2023-03-01T09:32:56;13.90;;;7.57;;
62911;SDS011;49111;51.028;4.218;2023-03-01T09:35:22;12.85;;;6.60;;
62911;SDS011;49111;51.028;4.218;2023-03-01T09:37:48;14.80;;;7.90;;
62911;SDS011;49111;51.028;4.218;2023-03-01T09:40:24;14.65;;;7.50;;
62911;SDS011;49111;51.028;4.218;2023-03-01T09:43:01;12.15;;;6.38;;
62911;SDS011;49111;51.028;4.218;2023-03-01T09:45:41;11.38;;;7.32;;
62911;SDS011;49111;51.028;4.218;2023-03-01T09:48:12;12.73;;;7.05;;
62911;SDS011;49111;51.028;4.218;2023-03-01T09:50:44;14.80;;;7.90;;
62911;SDS011;49111;51.028;4.218;2023-03-01T09:53:19;11.32;;;7.22;;
62911;SDS011;49111;51.028;4.218;2023-03-01T09:56:04;10.80;;;7.25;;
62911;SDS011;49111;51.028;4.218;2023-03-01T10:01:31;13.98;;;7.10;;
62911;SDS011;49111;51.028;4.218;2023-03-01T10:09:36;12.50;;;6.93;;
62911;SDS011;49111;51.028;4.218;2023-03-01T10:12:37;12.35;;;7.68;;
62911;SDS011;49111;51.028;4.218;2023-03-01T10:15:15;11.40;;;7.57;;
62911;SDS011;49111;51.028;4.218;2023-03-01T10:18:00;9.63;;;6.80;;
62911;SDS011;49111;51.028;4.218;2023-03-01T10:23:25;13.95;;;7.18;;
62911;SDS011;49111;51.028;4.218;2023-03-01T10:28:30;12.05;;;6.95;;
62911;SDS011;49111;51.028;4.218;2023-03-01T10:31:04;8.95;;;6.38;;
62911;SDS011;49111;51.028;4.218;2023-03-01T10:33:37;12.93;;;7.57;;
62911;SDS011;49111;51.028;4.218;2023-03-01T10:36:04;10.40;;;6.85;;
62911;SDS011;49111;51.028;4.218;2023-03-01T10:38:33;13.27;;;6.88;;
62911;SDS011;49111;51.028;4.218;2023-03-01T10:41:20;13.40;;;6.93;;
62911;SDS011;49111;51.028;4.218;2023-03-01T10:46:29;10.35;;;6.15;;
62911;SDS011;49111;51.028;4.218;2023-03-01T10:51:44;9.68;;;7.03;;
62911;SDS011;49111;51.028;4.218;2023-03-01T10:54:20;10.13;;;6.28;;
62911;SDS011;49111;51.028;4.218;2023-03-01T10:56:54;11.80;;;6.70;;
62911;SDS011;49111;51.028;4.218;2023-03-01T11:01:51;10.23;;;6.25;;
62911;SDS011;49111;51.028;4.218;2023-03-01T11:04:56;12.15;;;6.22;;
62911;SDS011;49111;51.028;4.218;2023-03-01T11:07:22;10.88;;;7.10;;
62911;SDS011;49111;51.028;4.218;2023-03-01T11:09:51;10.00;;;5.88;;
62911;SDS011;49111;51.028;4.218;2023-03-01T11:12:17;12.65;;;6.68;;
62911;SDS011;49111;51.028;4.218;2023-03-01T11:14:49;11.10;;;6.32;;
62911;SDS011;49111;51.028;4.218;2023-03-01T11:17:21;10.95;;;6.15;;
62911;SDS011;49111;51.028;4.218;2023-03-01T11:25:26;12.25;;;5.78;;
62911;SDS011;49111;51.028;4.218;2023-03-01T11:27:56;14.80;;;6.45;;
62911;SDS011;49111;51.028;4.218;2023-03-01T11:30:29;12.43;;;6.85;;
62911;SDS011;49111;51.028;4.218;2023-03-01T11:33:08;12.07;;;5.93;;
62911;SDS011;49111;51.028;4.218;2023-03-01T11:36:05;10.52;;;6.03;;
62911;SDS011;49111;51.028;4.218;2023-03-01T11:38:44;9.77;;;6.53;;
62911;SDS011;49111;51.028;4.218;2023-03-01T12:00:07;8.95;;;5.78;;
62911;SDS011;49111;51.028;4.218;2023-03-01T12:08:28;8.20;;;6.00;;
62911;SDS011;49111;51.028;4.218;2023-03-01T12:11:09;9.82;;;5.95;;
62911;SDS011;49111;51.028;4.218;2023-03-01T12:27:20;12.63;;;5.95;;
62911;SDS011;49111;51.028;4.218;2023-03-01T12:30:21;9.75;;;5.82;;
62911;SDS011;49111;51.028;4.218;2023-03-01T12:41:43;12.30;;;6.65;;
62911;SDS011;49111;51.028;4.218;2023-03-01T12:44:38;9.48;;;6.85;;
62911;SDS011;49111;51.028;4.218;2023-03-01T12:53:14;9.90;;;6.18;;
62911;SDS011;49111;51.028;4.218;2023-03-01T12:55:43;9.38;;;5.88;;
62911;SDS011;49111;51.028;4.218;2023-03-01T13:09:19;9.98;;;5.75;;
62911;SDS011;49111;51.028;4.218;2023-03-01T13:17:52;9.32;;;5.88;;
62911;SDS011;49111;51.028;4.218;2023-03-01T13:20:20;7.00;;;5.28;;
62911;SDS011;49111;51.028;4.218;2023-03-01T13:23:00;8.50;;;5.65;;
62911;SDS011;49111;51.028;4.218;2023-03-01T13:25:31;9.27;;;5.68;;
62911;SDS011;49111;51.028;4.218;2023-03-01T13:31:06;9.93;;;5.50;;
62911;SDS011;49111;51.028;4.218;2023-03-01T13:33:53;9.35;;;5.60;;
62911;SDS011;49111;51.028;4.218;2023-03-01T13:38:55;9.13;;;5.35;;
62911;SDS011;49111;51.028;4.218;2023-03-01T13:46:38;9.05;;;5.75;;
62911;SDS011;49111;51.028;4.218;2023-03-01T13:49:04;8.20;;;6.03;;
62911;SDS011;49111;51.028;4.218;2023-03-01T13:51:36;11.15;;;5.80;;
62911;SDS011;49111;51.028;4.218;2023-03-01T13:54:02;8.82;;;5.97;;
62911;SDS011;49111;51.028;4.218;2023-03-01T13:56:33;11.63;;;5.78;;
62911;SDS011;49111;51.028;4.218;2023-03-01T13:59:02;10.27;;;6.28;;
62911;SDS011;49111;51.028;4.218;2023-03-01T14:01:33;9.63;;;6.28;;
62911;SDS011;49111;51.028;4.218;2023-03-01T14:04:16;10.52;;;5.85;;
62911;SDS011;49111;51.028;4.218;2023-03-01T14:06:48;12.38;;;6.03;;
62911;SDS011;49111;51.028;4.218;2023-03-01T14:09:18;10.63;;;6.47;;
62911;SDS011;49111;51.028;4.218;2023-03-01T14:14:45;12.07;;;5.60;;
62911;SDS011;49111;51.028;4.218;2023-03-01T14:20:20;8.43;;;4.78;;
62911;SDS011;49111;51.028;4.218;2023-03-01T14:22:49;8.73;;;5.27;;
62911;SDS011;49111;51.028;4.218;2023-03-01T14:25:20;9.60;;;5.95;;
62911;SDS011;49111;51.028;4.218;2023-03-01T14:28:02;8.07;;;5.35;;
62911;SDS011;49111;51.028;4.218;2023-03-01T14:30:42;8.02;;;5.85;;
62911;SDS011;49111;51.028;4.218;2023-03-01T14:33:29;8.68;;;5.15;;
62911;SDS011;49111;51.028;4.218;2023-03-01T14:36:05;7.97;;;5.05;;
62911;SDS011;49111;51.028;4.218;2023-03-01T14:38:37;8.07;;;5.15;;
62911;SDS011;49111;51.028;4.218;2023-03-01T14:41:09;8.25;;;5.38;;
62911;SDS011;49111;51.028;4.218;2023-03-01T14:43:36;9.10;;;5.07;;
62911;SDS011;49111;51.028;4.218;2023-03-01T14:46:04;9.27;;;5.65;;
62911;SDS011;49111;51.028;4.218;2023-03-01T14:48:29;11.65;;;5.53;;
62911;SDS011;49111;51.028;4.218;2023-03-01T14:50:57;9.15;;;4.97;;
62911;SDS011;49111;51.028;4.218;2023-03-01T14:53:24;9.13;;;4.93;;
62911;SDS011;49111;51.028;4.218;2023-03-01T14:55:56;9.65;;;5.38;;
62911;SDS011;49111;51.028;4.218;2023-03-01T14:58:29;9.10;;;5.28;;
62911;SDS011;49111;51.028;4.218;2023-03-01T15:00:59;8.70;;;5.30;;
62911;SDS011;49111;51.028;4.218;2023-03-01T15:05:56;9.25;;;5.82;;
62911;SDS011;49111;51.028;4.218;2023-03-01T15:08:25;8.43;;;5.20;;
62911;SDS011;49111;51.028;4.218;2023-03-01T15:10:59;9.95;;;5.80;;
62911;SDS011;49111;51.028;4.218;2023-03-01T15:13:29;8.07;;;5.85;;
62911;SDS011;49111;51.028;4.218;2023-03-01T15:16:03;8.73;;;5.37;;
62911;SDS011;49111;51.028;4.218;2023-03-01T15:18:37;7.55;;;5.40;;
62911;SDS011;49111;51.028;4.218;2023-03-01T15:21:20;10.13;;;5.70;;
62911;SDS011;49111;51.028;4.218;2023-03-01T15:23:49;9.48;;;5.70;;
62911;SDS011;49111;51.028;4.218;2023-03-01T15:26:39;9.82;;;6.35;;
62911;SDS011;49111;51.028;4.218;2023-03-01T15:29:14;9.98;;;5.60;;
62911;SDS011;49111;51.028;4.218;2023-03-01T15:32:04;9.10;;;5.13;;
62911;SDS011;49111;51.028;4.218;2023-03-01T15:37:00;8.90;;;5.00;;
62911;SDS011;49111;51.028;4.218;2023-03-01T15:41:58;8.82;;;5.75;;
62911;SDS011;49111;51.028;4.218;2023-03-01T15:44:35;9.00;;;6.10;;
62911;SDS011;49111;51.028;4.218;2023-03-01T15:47:08;9.35;;;5.43;;
62911;SDS011;49111;51.028;4.218;2023-03-01T15:49:55;10.07;;;6.03;;
62911;SDS011;49111;51.028;4.218;2023-03-01T15:52:32;11.05;;;6.50;;
62911;SDS011;49111;51.028;4.218;2023-03-01T15:55:26;11.10;;;5.35;;
62911;SDS011;49111;51.028;4.218;2023-03-01T15:58:13;10.55;;;5.63;;
62911;SDS011;49111;51.028;4.218;2023-03-01T16:00:47;10.60;;;5.87;;
62911;SDS011;49111;51.028;4.218;2023-03-01T16:03:16;8.98;;;5.45;;
62911;SDS011;49111;51.028;4.218;2023-03-01T16:05:46;9.50;;;6.30;;
62911;SDS011;49111;51.028;4.218;2023-03-01T16:08:15;10.60;;;6.47;;
62911;SDS011;49111;51.028;4.218;2023-03-01T16:10:42;12.13;;;5.95;;
62911;SDS011;49111;51.028;4.218;2023-03-01T16:13:14;8.43;;;5.38;;
62911;SDS011;49111;51.028;4.218;2023-03-01T16:15:40;10.90;;;6.70;;
62911;SDS011;49111;51.028;4.218;2023-03-01T16:18:06;12.32;;;5.95;;
62911;SDS011;49111;51.028;4.218;2023-03-01T16:20:33;9.43;;;5.55;;
62911;SDS011;49111;51.028;4.218;2023-03-01T16:23:05;12.93;;;6.57;;
62911;SDS011;49111;51.028;4.218;2023-03-01T16:25:32;9.38;;;5.93;;
62911;SDS011;49111;51.028;4.218;2023-03-01T16:27:59;8.35;;;5.97;;
62911;SDS011;49111;51.028;4.218;2023-03-01T16:30:26;11.02;;;6.43;;
62911;SDS011;49111;51.028;4.218;2023-03-01T16:32:52;9.15;;;6.47;;
62911;SDS011;49111;51.028;4.218;2023-03-01T16:35:19;10.80;;;6.65;;
62911;SDS011;49111;51.028;4.218;2023-03-01T16:37:47;13.25;;;6.30;;
62911;SDS011;49111;51.028;4.218;2023-03-01T16:43:52;11.35;;;6.38;;
62911;SDS011;49111;51.028;4.218;2023-03-01T16:48:45;10.20;;;6.70;;
62911;SDS011;49111;51.028;4.218;2023-03-01T16:51:11;11.00;;;6.30;;
62911;SDS011;49111;51.028;4.218;2023-03-01T16:53:38;10.13;;;6.15;;
62911;SDS011;49111;51.028;4.218;2023-03-01T16:56:04;9.38;;;5.53;;
62911;SDS011;49111;51.028;4.218;2023-03-01T16:58:33;10.52;;;6.75;;
62911;SDS011;49111;51.028;4.218;2023-03-01T17:01:06;11.95;;;6.28;;
62911;SDS011;49111;51.028;4.218;2023-03-01T17:03:34;10.85;;;5.78;;
62911;SDS011;49111;51.028;4.218;2023-03-01T17:06:04;11.27;;;5.85;;
62911;SDS011;49111;51.028;4.218;2023-03-01T17:08:31;10.82;;;5.97;;
62911;SDS011;49111;51.028;4.218;2023-03-01T17:11:01;11.50;;;6.28;;
62911;SDS011;49111;51.028;4.218;2023-03-01T17:13:33;10.23;;;5.85;;
62911;SDS011;49111;51.028;4.218;2023-03-01T17:16:00;8.93;;;5.75;;
62911;SDS011;49111;51.028;4.218;2023-03-01T17:18:28;9.95;;;5.45;;
62911;SDS011;49111;51.028;4.218;2023-03-01T17:20:54;11.18;;;6.57;;
62911;SDS011;49111;51.028;4.218;2023-03-01T17:23:20;11.18;;;6.18;;
62911;SDS011;49111;51.028;4.218;2023-03-01T17:25:46;12.32;;;6.43;;
62911;SDS011;49111;51.028;4.218;2023-03-01T17:28:12;11.05;;;6.07;;
62911;SDS011;49111;51.028;4.218;2023-03-01T17:30:44;12.75;;;6.50;;
62911;SDS011;49111;51.028;4.218;2023-03-01T17:33:12;11.35;;;5.78;;
62911;SDS011;49111;51.028;4.218;2023-03-01T17:35:38;11.15;;;5.97;;
62911;SDS011;49111;51.028;4.218;2023-03-01T17:38:04;12.68;;;6.03;;
62911;SDS011;49111;51.028;4.218;2023-03-01T17:40:31;11.90;;;6.20;;
62911;SDS011;49111;51.028;4.218;2023-03-01T17:42:57;12.25;;;6.63;;
62911;SDS011;49111;51.028;4.218;2023-03-01T17:45:23;10.50;;;6.43;;
62911;SDS011;49111;51.028;4.218;2023-03-01T17:47:49;14.73;;;8.27;;
62911;SDS011;49111;51.028;4.218;2023-03-01T17:50:15;14.07;;;7.22;;
62911;SDS011;49111;51.028;4.218;2023-03-01T17:52:41;12.25;;;6.70;;
62911;SDS011;49111;51.028;4.218;2023-03-01T17:55:07;9.88;;;6.32;;
62911;SDS011;49111;51.028;4.218;2023-03-01T17:57:34;11.00;;;7.00;;
62911;SDS011;49111;51.028;4.218;2023-03-01T18:00:02;13.88;;;7.25;;
62911;SDS011;49111;51.028;4.218;2023-03-01T18:02:36;12.15;;;6.32;;
62911;SDS011;49111;51.028;4.218;2023-03-01T18:05:02;12.93;;;6.65;;
62911;SDS011;49111;51.028;4.218;2023-03-01T18:07:28;14.13;;;7.30;;
62911;SDS011;49111;51.028;4.218;2023-03-01T18:09:54;13.13;;;7.25;;
62911;SDS011;49111;51.028;4.218;2023-03-01T18:12:20;11.48;;;7.07;;
62911;SDS011;49111;51.028;4.218;2023-03-01T18:14:47;11.85;;;7.15;;
62911;SDS011;49111;51.028;4.218;2023-03-01T18:17:18;13.65;;;7.68;;
62911;SDS011;49111;51.028;4.218;2023-03-01T18:19:44;10.68;;;6.93;;
62911;SDS011;49111;51.028;4.218;2023-03-01T18:22:10;14.35;;;7.80;;
62911;SDS011;49111;51.028;4.218;2023-03-01T18:24:37;9.68;;;6.68;;
62911;SDS011;49111;51.028;4.218;2023-03-01T18:27:03;13.85;;;7.43;;
62911;SDS011;49111;51.028;4.218;2023-03-01T18:29:28;13.25;;;7.38;;
62911;SDS011;49111;51.028;4.218;2023-03-01T18:31:54;15.23;;;7.88;;
62911;SDS011;49111;51.028;4.218;2023-03-01T18:34:20;12.68;;;8.05;;
62911;SDS011;49111;51.028;4.218;2023-03-01T18:36:47;12.18;;;7.18;;
62911;SDS011;49111;51.028;4.218;2023-03-01T18:39:16;15.50;;;8.07;;
62911;SDS011;49111;51.028;4.218;2023-03-01T18:41:43;11.82;;;7.22;;
62911;SDS011;49111;51.028;4.218;2023-03-01T18:44:09;12.65;;;8.05;;
62911;SDS011;49111;51.028;4.218;2023-03-01T18:46:35;12.90;;;7.70;;
62911;SDS011;49111;51.028;4.218;2023-03-01T18:49:02;13.35;;;7.70;;
62911;SDS011;49111;51.028;4.218;2023-03-01T18:51:29;11.57;;;7.63;;
62911;SDS011;49111;51.028;4.218;2023-03-01T18:53:56;10.43;;;7.00;;
62911;SDS011;49111;51.028;4.218;2023-03-01T18:56:25;13.18;;;7.78;;
62911;SDS011;49111;51.028;4.218;2023-03-01T18:58:53;13.15;;;7.78;;
62911;SDS011;49111;51.028;4.218;2023-03-01T19:01:21;11.40;;;7.47;;
62911;SDS011;49111;51.028;4.218;2023-03-01T19:03:49;12.05;;;7.47;;
62911;SDS011;49111;51.028;4.218;2023-03-01T19:06:15;16.88;;;10.55;;
62911;SDS011;49111;51.028;4.218;2023-03-01T19:08:42;25.45;;;12.32;;
62911;SDS011;49111;51.028;4.218;2023-03-01T19:11:08;21.88;;;13.60;;
62911;SDS011;49111;51.028;4.218;2023-03-01T19:13:36;19.65;;;12.75;;
62911;SDS011;49111;51.028;4.218;2023-03-01T19:16:07;22.88;;;12.90;;
62911;SDS011;49111;51.028;4.218;2023-03-01T19:18:35;17.77;;;10.82;;
62911;SDS011;49111;51.028;4.218;2023-03-01T19:21:04;16.20;;;9.80;;
62911;SDS011;49111;51.028;4.218;2023-03-01T19:23:30;16.63;;;10.77;;
62911;SDS011;49111;51.028;4.218;2023-03-01T19:26:00;16.30;;;9.88;;
